createdAt,value
2018-06-18T00:00:16.792Z,5.07
2018-06-18T00:02:44.987Z,5.00
2018-06-18T00:05:12.956Z,5.50
2018-06-18T00:07:40.897Z,4.87
2018-06-18T00:10:09.089Z,5.40
2018-06-18T00:12:37.425Z,5.07
2018-06-18T00:15:05.624Z,5.60
2018-06-18T00:17:33.795Z,5.10
2018-06-18T00:20:01.979Z,5.00
2018-06-18T00:22:30.165Z,4.33
2018-06-18T00:24:58.328Z,4.53
2018-06-18T00:27:26.486Z,4.70
2018-06-18T00:29:54.690Z,4.33
2018-06-18T00:32:22.643Z,4.47
2018-06-18T00:34:50.816Z,3.50
2018-06-18T00:37:19.013Z,5.37
2018-06-18T00:39:46.959Z,4.70
2018-06-18T00:42:15.133Z,4.17
2018-06-18T00:44:43.332Z,4.80
2018-06-18T00:47:11.508Z,4.30
2018-06-18T00:49:39.816Z,4.40
2018-06-18T00:52:07.990Z,4.30
2018-06-18T00:54:36.497Z,4.20
2018-06-18T00:57:04.993Z,5.40
2018-06-18T00:59:33.172Z,3.90
2018-06-18T01:02:01.347Z,4.87
2018-06-18T01:04:29.295Z,5.00
2018-06-18T01:06:57.464Z,4.73
2018-06-18T01:09:25.671Z,5.77
2018-06-18T01:11:53.876Z,4.50
2018-06-18T01:14:23.152Z,5.17
2018-06-18T01:16:51.327Z,5.40
2018-06-18T01:19:19.545Z,5.00
2018-06-18T01:21:47.739Z,5.43
2018-06-18T01:24:24.564Z,4.83
2018-06-18T01:26:52.736Z,4.30
2018-06-18T01:29:20.924Z,5.57
2018-06-18T01:31:49.109Z,5.93
2018-06-18T01:34:21.221Z,4.70
2018-06-18T01:36:49.389Z,5.70
2018-06-18T01:39:17.575Z,6.20
2018-06-18T01:41:45.601Z,6.60
2018-06-18T01:44:13.747Z,7.23
2018-06-18T01:46:41.947Z,6.67
2018-06-18T01:49:10.140Z,7.87
2018-06-18T01:51:38.312Z,7.90
2018-06-18T01:54:06.504Z,8.90
2018-06-18T01:56:34.664Z,8.77
2018-06-18T01:59:02.852Z,9.13
2018-06-18T02:01:30.970Z,8.67
2018-06-18T02:03:59.164Z,9.13
2018-06-18T02:06:27.339Z,8.70
2018-06-18T02:08:55.530Z,8.47
2018-06-18T02:11:23.708Z,8.00
2018-06-18T02:13:51.895Z,7.10
2018-06-18T02:16:20.114Z,6.70
2018-06-18T02:18:48.296Z,7.50
2018-06-18T02:21:16.631Z,7.43
2018-06-18T02:23:44.848Z,7.30
2018-06-18T02:26:13.021Z,6.83
2018-06-18T02:28:46.487Z,6.70
2018-06-18T02:31:20.236Z,6.10
2018-06-18T02:33:54.030Z,6.63
2018-06-18T02:36:27.734Z,5.93
2018-06-18T02:39:01.173Z,5.20
2018-06-18T02:41:29.358Z,4.70
2018-06-18T02:43:57.299Z,4.70
2018-06-18T02:46:25.480Z,5.10
2018-06-18T02:48:53.976Z,4.47
2018-06-18T02:51:21.929Z,4.20
2018-06-18T02:53:50.116Z,4.60
2018-06-18T02:56:19.354Z,4.80
2018-06-18T02:58:47.540Z,4.80
2018-06-18T03:01:15.729Z,4.93
2018-06-18T03:03:43.908Z,3.53
2018-06-18T03:06:12.076Z,5.00
2018-06-18T03:08:40.261Z,4.83
2018-06-18T03:11:08.440Z,6.00
2018-06-18T03:13:36.617Z,5.77
2018-06-18T03:16:04.796Z,6.10
2018-06-18T03:18:38.363Z,7.50
2018-06-18T03:21:11.919Z,8.30
2018-06-18T03:23:45.607Z,7.83
2018-06-18T03:26:19.291Z,7.13
2018-06-18T03:28:52.759Z,9.53
2018-06-18T03:31:20.953Z,7.00
2018-06-18T03:33:49.144Z,8.87
2018-06-18T03:36:17.316Z,8.10
2018-06-18T03:38:45.512Z,8.13
2018-06-18T03:41:13.684Z,7.50
2018-06-18T03:43:48.085Z,6.70
2018-06-18T03:46:16.277Z,6.57
2018-06-18T03:48:44.507Z,5.80
2018-06-18T03:51:12.710Z,6.40
2018-06-18T03:53:40.904Z,4.83
2018-06-18T03:56:09.156Z,6.50
2018-06-18T03:58:37.302Z,5.40
2018-06-18T04:02:33.868Z,6.60
2018-06-18T04:05:07.549Z,6.17
2018-06-18T04:07:41.104Z,7.03
2018-06-18T04:10:14.873Z,6.67
2018-06-18T04:12:43.052Z,6.10
2018-06-18T04:15:11.275Z,5.83
2018-06-18T04:17:39.447Z,6.37
2018-06-18T04:20:07.660Z,5.73
2018-06-18T04:22:35.875Z,5.43
2018-06-18T04:25:04.100Z,5.17
2018-06-18T04:27:32.382Z,5.20
2018-06-18T04:30:00.573Z,5.70
2018-06-18T04:32:28.743Z,5.83
2018-06-18T04:34:58.787Z,6.67
2018-06-18T04:37:27.016Z,4.80
2018-06-18T04:39:55.195Z,5.47
2018-06-18T04:42:28.987Z,5.30
2018-06-18T04:46:01.241Z,5.93
2018-06-18T04:48:34.880Z,5.37
2018-06-18T04:51:03.438Z,5.10
2018-06-18T04:53:31.787Z,5.77
2018-06-18T04:56:00.000Z,5.90
2018-06-18T04:58:28.193Z,5.53
2018-06-18T05:01:03.657Z,5.70
2018-06-18T05:03:31.844Z,5.57
2018-06-18T05:06:00.041Z,5.70
2018-06-18T05:08:43.315Z,5.30
2018-06-18T05:11:11.500Z,6.57
2018-06-18T05:13:39.429Z,6.43
2018-06-18T05:16:07.613Z,5.63
2018-06-18T05:18:35.796Z,5.27
2018-06-18T05:21:03.980Z,6.40
2018-06-18T05:23:32.161Z,5.00
2018-06-18T05:26:01.258Z,4.70
2018-06-18T05:28:29.479Z,5.20
2018-06-18T05:30:57.742Z,5.77
2018-06-18T05:33:25.924Z,4.87
2018-06-18T05:35:54.104Z,5.43
2018-06-18T05:38:30.240Z,5.60
2018-06-18T05:40:59.019Z,6.23
2018-06-18T05:43:27.430Z,6.03
2018-06-18T05:45:55.581Z,5.03
2018-06-18T05:48:23.743Z,6.40
2018-06-18T05:50:51.921Z,6.70
2018-06-18T05:53:20.237Z,6.63
2018-06-18T05:55:48.444Z,6.73
2018-06-18T05:58:16.661Z,7.33
2018-06-18T06:00:44.874Z,6.30
2018-06-18T06:03:13.046Z,7.10
2018-06-18T06:05:41.575Z,7.27
2018-06-18T06:08:10.053Z,7.43
2018-06-18T06:10:38.314Z,6.57
2018-06-18T06:13:07.222Z,7.30
2018-06-18T06:15:35.420Z,8.13
2018-06-18T06:18:03.613Z,8.53
2018-06-18T06:20:31.812Z,7.87
2018-06-18T06:23:00.058Z,7.30
2018-06-18T06:25:28.224Z,7.60
2018-06-18T06:27:56.428Z,6.50
2018-06-18T06:30:24.617Z,8.00
2018-06-18T06:32:52.828Z,7.73
2018-06-18T06:35:26.294Z,9.50
2018-06-18T06:37:55.196Z,10.47
2018-06-18T06:40:23.618Z,9.93
2018-06-18T06:42:51.841Z,10.03
2018-06-18T06:45:20.153Z,10.13
2018-06-18T06:47:48.356Z,10.97
2018-06-18T06:50:16.660Z,11.50
2018-06-18T06:52:44.840Z,9.77
2018-06-18T06:55:13.032Z,9.80
2018-06-18T06:57:41.245Z,8.83
2018-06-18T07:00:09.452Z,9.17
2018-06-18T07:02:37.631Z,8.43
2018-06-18T07:05:05.848Z,8.57
2018-06-18T07:07:34.024Z,10.33
2018-06-18T07:10:02.309Z,10.90
2018-06-18T07:12:30.772Z,10.10
2018-06-18T07:14:58.946Z,10.00
2018-06-18T07:17:27.152Z,10.50
2018-06-18T07:19:55.377Z,11.33
2018-06-18T07:22:23.584Z,10.30
2018-06-18T07:24:51.755Z,11.27
2018-06-18T07:27:19.965Z,11.57
2018-06-18T07:29:48.149Z,11.93
2018-06-18T07:32:16.344Z,12.63
2018-06-18T07:34:44.522Z,12.27
2018-06-18T07:37:12.716Z,11.10
2018-06-18T07:39:40.896Z,12.80
2018-06-18T07:42:09.088Z,11.30
2018-06-18T07:44:37.288Z,11.13
2018-06-18T07:47:05.489Z,10.97
2018-06-18T07:49:33.664Z,11.87
2018-06-18T07:52:01.855Z,14.30
2018-06-18T07:54:30.016Z,15.60
2018-06-18T07:56:58.201Z,14.53
2018-06-18T07:59:26.392Z,14.00
2018-06-18T08:01:54.563Z,16.70
2018-06-18T08:04:23.108Z,14.67
2018-06-18T08:06:51.296Z,14.17
2018-06-18T08:09:19.493Z,15.40
2018-06-18T08:11:47.685Z,15.83
2018-06-18T08:14:15.862Z,13.17
2018-06-18T08:16:44.088Z,14.30
2018-06-18T08:19:12.308Z,13.83
2018-06-18T08:21:40.451Z,14.43
2018-06-18T08:24:08.632Z,13.13
2018-06-18T08:26:36.819Z,13.40
2018-06-18T08:29:05.059Z,12.40
2018-06-18T08:31:33.236Z,13.47
2018-06-18T08:34:01.432Z,13.00
2018-06-18T08:36:29.620Z,14.23
2018-06-18T08:38:57.783Z,11.93
2018-06-18T08:41:25.981Z,13.63
2018-06-18T08:43:54.163Z,13.40
2018-06-18T08:46:22.345Z,15.90
2018-06-18T08:48:55.986Z,13.27
2018-06-18T08:51:29.445Z,14.50
2018-06-18T08:54:03.062Z,15.77
2018-06-18T08:56:36.448Z,16.07
2018-06-18T08:59:09.966Z,14.60
2018-06-18T09:01:44.903Z,16.70
2018-06-18T09:04:18.621Z,14.47
2018-06-18T09:06:47.379Z,16.23
2018-06-18T09:09:15.332Z,15.90
2018-06-18T09:11:43.503Z,16.13
2018-06-18T09:14:11.679Z,17.53
2018-06-18T09:16:39.941Z,16.23
2018-06-18T09:19:08.117Z,13.90
2018-06-18T09:21:36.336Z,14.73
2018-06-18T09:24:04.795Z,16.27
2018-06-18T09:26:33.008Z,14.00
2018-06-18T09:29:01.180Z,15.33
2018-06-18T09:31:29.360Z,15.93
2018-06-18T09:33:57.556Z,15.23
2018-06-18T09:36:25.781Z,14.80
2018-06-18T09:38:53.952Z,15.90
2018-06-18T09:41:22.156Z,14.70
2018-06-18T09:43:50.420Z,14.27
2018-06-18T09:46:18.604Z,13.27
2018-06-18T09:48:52.221Z,11.60
2018-06-18T09:51:25.952Z,10.40
2018-06-18T09:53:59.599Z,10.40
2018-06-18T09:56:33.334Z,9.70
2018-06-18T09:59:06.852Z,7.73
2018-06-18T10:01:35.032Z,5.37
2018-06-18T10:04:04.121Z,4.57
2018-06-18T10:06:34.176Z,4.60
2018-06-18T10:09:05.524Z,4.27
2018-06-18T10:11:34.395Z,4.00
2018-06-18T10:14:02.903Z,3.87
2018-06-18T10:16:31.157Z,2.50
2018-06-18T10:18:59.833Z,2.40
2018-06-18T10:21:28.346Z,3.10
2018-06-18T10:23:56.704Z,2.50
2018-06-18T10:26:24.882Z,2.73
2018-06-18T10:28:53.076Z,3.13
2018-06-18T10:31:21.371Z,2.50
2018-06-18T10:33:55.071Z,2.87
2018-06-18T10:36:28.757Z,2.43
2018-06-18T10:39:02.456Z,3.30
2018-06-18T10:41:36.132Z,3.77
2018-06-18T10:44:04.304Z,3.73
2018-06-18T10:46:32.236Z,3.30
2018-06-18T10:49:00.470Z,2.73
2018-06-18T10:51:28.609Z,3.77
2018-06-18T10:53:56.794Z,4.33
2018-06-18T10:56:24.731Z,5.37
2018-06-18T10:58:52.915Z,7.10
2018-06-18T11:01:26.992Z,8.57
2018-06-18T11:03:55.171Z,8.20
2018-06-18T11:06:28.905Z,7.93
2018-06-18T11:08:57.111Z,8.00
2018-06-18T11:11:25.327Z,7.67
2018-06-18T11:13:53.524Z,5.53
2018-06-18T11:16:21.966Z,5.20
2018-06-18T11:18:55.360Z,4.87
2018-06-18T11:21:29.069Z,5.17
2018-06-18T11:24:02.559Z,4.77
2018-06-18T11:26:36.241Z,5.50
2018-06-18T11:29:04.599Z,3.97
2018-06-18T11:31:32.856Z,3.37
2018-06-18T11:34:01.044Z,2.73
2018-06-18T11:36:29.243Z,2.60
2018-06-18T11:38:57.457Z,2.33
2018-06-18T11:41:25.969Z,2.33
2018-06-18T11:43:54.177Z,1.70
2018-06-18T11:46:22.359Z,2.03
2018-06-18T11:48:50.530Z,2.50
2018-06-18T11:51:18.712Z,2.53
2018-06-18T11:53:46.884Z,3.53
2018-06-18T11:56:15.139Z,2.50
2018-06-18T11:58:48.845Z,2.27
2018-06-18T12:01:22.501Z,2.20
2018-06-18T12:03:56.021Z,2.47
2018-06-18T12:06:29.596Z,2.43
2018-06-18T12:09:03.241Z,2.33
2018-06-18T12:11:31.417Z,2.77
2018-06-18T12:13:59.680Z,3.03
2018-06-18T12:16:27.624Z,2.40
2018-06-18T12:18:55.799Z,2.73
2018-06-18T12:21:23.969Z,2.77
2018-06-18T12:23:52.144Z,3.27
2018-06-18T12:26:20.331Z,4.60
2018-06-18T12:28:48.299Z,6.57
2018-06-18T12:31:16.495Z,9.10
2018-06-18T12:33:44.700Z,10.40
2018-06-18T12:36:12.900Z,8.87
2018-06-18T12:38:41.079Z,9.60
2018-06-18T12:41:09.943Z,8.90
2018-06-18T12:43:40.609Z,10.00
2018-06-18T12:46:14.156Z,8.83
2018-06-18T12:48:47.584Z,8.90
2018-06-18T12:51:21.285Z,6.97
2018-06-18T12:53:54.981Z,5.70
2018-06-18T12:56:28.791Z,5.37
2018-06-18T12:58:56.960Z,6.07
2018-06-18T13:01:27.572Z,6.23
2018-06-18T13:03:55.755Z,7.00
2018-06-18T13:06:23.948Z,8.17
2018-06-18T13:08:52.144Z,8.73
2018-06-18T13:11:20.412Z,9.03
2018-06-18T13:13:48.616Z,10.43
2018-06-18T13:16:16.819Z,10.40
2018-06-18T13:18:45.061Z,10.40
2018-06-18T13:21:13.249Z,9.33
2018-06-18T13:23:41.434Z,10.00
2018-06-18T13:26:09.615Z,10.33
2018-06-18T13:28:37.791Z,8.40
2018-06-18T13:31:06.045Z,9.73
2018-06-18T13:33:34.237Z,9.27
2018-06-18T13:36:02.438Z,8.20
2018-06-18T13:38:36.063Z,8.20
2018-06-18T13:41:09.732Z,7.50
2018-06-18T13:43:43.280Z,7.23
2018-06-18T13:46:16.965Z,7.17
2018-06-18T13:48:48.039Z,6.83
2018-06-18T13:51:16.243Z,6.20
2018-06-18T13:53:44.469Z,6.90
2018-06-18T13:56:12.427Z,7.10
2018-06-18T13:58:40.591Z,7.90
2018-06-18T14:01:10.362Z,9.10
2018-06-18T14:03:38.571Z,9.77
2018-06-18T14:06:06.751Z,8.80
2018-06-18T14:08:34.944Z,9.70
2018-06-18T14:11:02.865Z,6.40
2018-06-18T14:13:31.095Z,5.97
2018-06-18T14:15:59.068Z,6.73
2018-06-18T14:18:27.241Z,5.90
2018-06-18T14:20:55.432Z,4.30
2018-06-18T14:23:23.671Z,5.40
2018-06-18T14:25:51.607Z,6.13
2018-06-18T14:28:19.820Z,5.50
2018-06-18T14:30:53.245Z,6.47
2018-06-18T14:33:26.980Z,6.07
2018-06-18T14:36:00.602Z,6.70
2018-06-18T14:38:34.196Z,5.60
2018-06-18T14:41:02.452Z,6.30
2018-06-18T14:43:30.666Z,6.87
2018-06-18T14:45:58.909Z,7.17
2018-06-18T14:48:27.055Z,5.50
2018-06-18T14:50:55.336Z,6.30
2018-06-18T14:53:23.533Z,6.53
2018-06-18T14:55:58.589Z,5.50
2018-06-18T14:58:26.779Z,6.90
2018-06-18T15:00:54.726Z,5.30
2018-06-18T15:03:22.916Z,5.80
2018-06-18T15:05:50.870Z,4.63
2018-06-18T15:08:19.057Z,4.63
2018-06-18T15:10:53.073Z,3.50
2018-06-18T15:13:21.260Z,3.97
2018-06-18T15:15:54.877Z,4.10
2018-06-18T15:18:23.076Z,4.10
2018-06-18T15:20:52.704Z,3.20
2018-06-18T15:23:20.900Z,3.40
2018-06-18T15:25:50.483Z,3.83
2018-06-18T15:28:18.684Z,3.57
2018-06-18T15:30:47.546Z,3.70
2018-06-18T15:33:15.727Z,3.20
2018-06-18T15:35:44.256Z,3.10
2018-06-18T15:38:12.536Z,3.40
2018-06-18T15:40:40.615Z,4.27
2018-06-18T15:43:08.853Z,4.50
2018-06-18T15:45:37.053Z,4.47
2018-06-18T15:48:05.260Z,5.00
2018-06-18T15:50:33.455Z,4.57
2018-06-18T15:53:01.673Z,5.30
2018-06-18T15:55:29.833Z,4.77
2018-06-18T15:57:58.019Z,4.43
2018-06-18T16:00:26.208Z,4.03
2018-06-18T16:02:54.412Z,4.73
2018-06-18T16:05:22.632Z,4.60
2018-06-18T16:07:50.904Z,4.27
2018-06-18T16:10:19.090Z,3.70
2018-06-18T16:12:47.283Z,3.50
2018-06-18T16:15:15.497Z,3.93
2018-06-18T16:17:43.722Z,3.57
2018-06-18T16:20:11.994Z,4.23
2018-06-18T16:22:40.180Z,3.23
2018-06-18T16:25:08.382Z,3.77
2018-06-18T16:27:36.617Z,3.77
2018-06-18T16:30:04.940Z,4.03
2018-06-18T16:32:33.144Z,4.10
2018-06-18T16:35:01.320Z,2.60
2018-06-18T16:37:29.513Z,4.13
2018-06-18T16:39:57.680Z,3.80
2018-06-18T16:42:25.859Z,4.33
2018-06-18T16:44:54.052Z,3.73
2018-06-18T16:47:22.254Z,4.03
2018-06-18T16:49:50.432Z,3.50
2018-06-18T16:52:18.629Z,3.40
2018-06-18T16:54:46.835Z,3.40
2018-06-18T16:57:15.051Z,3.60
2018-06-18T16:59:43.240Z,3.23
2018-06-18T17:02:17.968Z,2.90
2018-06-18T17:04:45.920Z,3.40
2018-06-18T17:07:14.128Z,4.10
2018-06-18T17:09:42.330Z,3.80
2018-06-18T17:12:10.500Z,2.70
2018-06-18T17:14:38.687Z,3.17
2018-06-18T17:17:06.903Z,3.60
2018-06-18T17:19:35.308Z,2.90
2018-06-18T17:22:03.508Z,2.90
2018-06-18T17:24:31.676Z,2.63
2018-06-18T17:26:59.855Z,3.40
2018-06-18T17:29:28.055Z,2.90
2018-06-18T17:31:56.257Z,3.37
2018-06-18T17:34:24.211Z,2.77
2018-06-18T17:36:53.130Z,2.73
2018-06-18T17:39:21.295Z,2.13
2018-06-18T17:41:49.485Z,2.40
2018-06-18T17:44:17.715Z,2.30
2018-06-18T17:46:45.909Z,2.47
2018-06-18T17:49:14.296Z,2.67
2018-06-18T17:51:42.266Z,2.40
2018-06-18T17:54:10.450Z,2.10
2018-06-18T17:56:38.683Z,1.90
2018-06-18T17:59:06.864Z,2.10
2018-06-18T18:01:35.044Z,2.80
2018-06-18T18:04:03.236Z,2.37
2018-06-18T18:06:31.473Z,2.83
2018-06-18T18:09:01.672Z,2.40
2018-06-18T18:11:29.843Z,3.60
2018-06-18T18:13:58.056Z,3.27
2018-06-18T18:16:26.496Z,2.80
2018-06-18T18:18:54.683Z,3.87
2018-06-18T18:21:22.892Z,4.57
2018-06-18T18:23:51.082Z,3.50
2018-06-18T18:26:19.289Z,4.13
2018-06-18T18:28:47.637Z,3.60
2018-06-18T18:31:15.784Z,3.70
2018-06-18T18:33:44.034Z,3.40
2018-06-18T18:36:12.192Z,3.90
2018-06-18T18:38:40.374Z,3.77
2018-06-18T18:41:09.179Z,3.30
2018-06-18T18:43:37.381Z,3.00
2018-06-18T18:46:05.323Z,3.20
2018-06-18T18:48:34.476Z,3.20
2018-06-18T18:51:03.139Z,2.93
2018-06-18T18:53:31.428Z,2.57
2018-06-18T18:56:12.009Z,2.80
2018-06-18T18:59:07.468Z,3.30
2018-06-18T19:01:35.672Z,3.13
2018-06-18T19:04:05.812Z,2.80
2018-06-18T19:06:33.965Z,2.93
2018-06-18T19:09:02.156Z,3.67
2018-06-18T19:11:30.369Z,2.93
2018-06-18T19:13:58.534Z,2.97
2018-06-18T19:16:26.745Z,2.50
2018-06-18T19:18:56.549Z,2.53
2018-06-18T19:21:24.895Z,3.20
2018-06-18T19:23:53.093Z,2.87
2018-06-18T19:26:21.335Z,2.93
2018-06-18T19:28:49.491Z,3.10
2018-06-18T19:31:20.819Z,3.43
2018-06-18T19:34:06.384Z,2.90
2018-06-18T19:36:41.137Z,3.07
2018-06-18T19:39:10.715Z,3.13
2018-06-18T19:41:38.904Z,3.93
2018-06-18T19:44:07.113Z,4.43
2018-06-18T19:46:39.108Z,4.30
2018-06-18T19:49:12.239Z,4.07
2018-06-18T19:51:40.942Z,4.63
2018-06-18T19:54:14.204Z,4.87
2018-06-18T19:56:42.380Z,4.30
2018-06-18T19:59:10.579Z,3.70
2018-06-18T20:01:45.334Z,4.13
2018-06-18T20:04:13.503Z,4.23
2018-06-18T20:06:41.804Z,3.20
2018-06-18T20:09:11.880Z,3.40
2018-06-18T20:11:40.296Z,3.00
2018-06-18T20:14:08.480Z,3.70
2018-06-18T20:16:36.683Z,3.03
2018-06-18T20:19:04.913Z,3.03
2018-06-18T20:21:33.090Z,3.17
2018-06-18T20:24:01.308Z,3.77
2018-06-18T20:26:29.469Z,3.60
2018-06-18T20:28:57.736Z,3.30
2018-06-18T20:31:25.749Z,4.40
2018-06-18T20:33:56.013Z,3.30
2018-06-18T20:36:25.421Z,3.40
2018-06-18T20:38:53.584Z,3.30
2018-06-18T20:41:22.135Z,3.47
2018-06-18T20:44:07.577Z,2.63
2018-06-18T20:46:35.782Z,4.33
2018-06-18T20:49:04.157Z,2.77
2018-06-18T20:51:32.336Z,3.10
2018-06-18T20:54:00.540Z,2.90
2018-06-18T20:56:28.730Z,2.40
2018-06-18T20:58:58.016Z,3.00
2018-06-18T21:01:26.436Z,2.57
2018-06-18T21:03:54.625Z,3.03
2018-06-18T21:06:22.788Z,2.23
2018-06-18T21:08:51.027Z,2.33
2018-06-18T21:11:19.203Z,2.50
2018-06-18T21:13:47.155Z,2.47
2018-06-18T21:16:15.361Z,2.20
2018-06-18T21:18:43.544Z,1.97
2018-06-18T21:21:12.248Z,2.10
2018-06-18T21:23:40.738Z,1.87
2018-06-18T21:26:09.179Z,2.23
2018-06-18T21:28:37.397Z,2.30
2018-06-18T21:31:05.627Z,1.93
2018-06-18T21:33:33.584Z,2.50
2018-06-18T21:36:01.768Z,2.03
2018-06-18T21:38:29.949Z,2.73
2018-06-18T21:40:58.113Z,2.73
2018-06-18T21:43:26.231Z,2.67
2018-06-18T21:45:54.440Z,2.40
2018-06-18T21:48:22.645Z,2.70
2018-06-18T21:50:50.808Z,2.30
2018-06-18T21:53:18.972Z,2.87
2018-06-18T21:55:47.152Z,3.20
2018-06-18T21:58:15.288Z,2.50
2018-06-18T22:00:46.869Z,2.60
2018-06-18T22:03:15.112Z,2.63
2018-06-18T22:05:43.952Z,2.47
2018-06-18T22:08:13.636Z,2.43
2018-06-18T22:10:41.829Z,3.80
2018-06-18T22:13:09.776Z,2.47
2018-06-18T22:15:38.003Z,2.40
2018-06-18T22:18:06.292Z,2.60
2018-06-18T22:20:34.485Z,3.30
2018-06-18T22:23:02.695Z,2.60
2018-06-18T22:25:30.639Z,2.53
2018-06-18T22:27:59.136Z,2.77
2018-06-18T22:30:27.078Z,2.97
2018-06-18T22:32:55.257Z,2.63
2018-06-18T22:35:23.429Z,2.83
2018-06-18T22:37:51.632Z,3.00
2018-06-18T22:40:19.566Z,2.63
2018-06-18T22:42:47.764Z,3.07
2018-06-18T22:45:16.005Z,2.90
2018-06-18T22:47:44.260Z,2.93
2018-06-18T22:50:12.452Z,2.87
2018-06-18T22:52:40.638Z,3.67
2018-06-18T22:55:08.826Z,3.77
2018-06-18T22:57:37.039Z,2.70
2018-06-18T23:00:05.409Z,2.80
2018-06-18T23:02:33.996Z,3.10
2018-06-18T23:05:02.203Z,2.73
2018-06-18T23:07:30.408Z,2.77
2018-06-18T23:09:58.599Z,2.47
2018-06-18T23:12:33.091Z,3.33
2018-06-18T23:15:01.629Z,3.03
2018-06-18T23:17:29.835Z,3.00
2018-06-18T23:19:58.031Z,3.43
2018-06-18T23:22:26.226Z,2.60
2018-06-18T23:24:54.186Z,2.67
2018-06-18T23:27:22.373Z,2.90
2018-06-18T23:29:50.328Z,2.97
2018-06-18T23:32:18.512Z,2.97
2018-06-18T23:34:47.128Z,2.70
2018-06-18T23:37:15.339Z,2.80
2018-06-18T23:39:43.527Z,2.70
2018-06-18T23:42:11.716Z,3.07
2018-06-18T23:44:39.924Z,2.97
2018-06-18T23:47:08.123Z,3.80
2018-06-18T23:49:36.307Z,3.07
2018-06-18T23:52:04.503Z,3.03
2018-06-18T23:54:32.795Z,4.00
2018-06-18T23:57:01.048Z,3.27
2018-06-18T23:59:29.788Z,3.80
